Time;durP1;ratioP1;P1;durP2;ratioP2;P2;SDS_P1;SDS_P2;PMS_P1;PMS_P2;Temp;Humidity;BMP_temperature;BMP_pressure;BME280_temperature;BME280_humidity;BME280_pressure;Samples;Min_cycle;Max_cycle;Signal;HPM_P1;HPM_P2
2022/06/06 00:03:54;;;;;;;25.92;5.78;;;;;;;26.91;46.92;101074.28;5116448;27;20400;-80
2022/06/06 00:06:21;;;;;;;25.30;5.35;;;;;;;26.85;47.06;101075.25;5082808;28;20481;-80
2022/06/06 00:08:48;;;;;;;26.50;6.18;;;;;;;26.37;47.15;101005.34;5082374;28;20055;-80
2022/06/06 00:11:15;;;;;;;28.20;6.80;;;;;;;26.59;47.09;101028.25;5082476;28;20047;-80
2022/06/06 00:13:44;;;;;;;20.77;6.22;;;;;;;26.85;46.94;101069.78;5082515;28;20049;-81
2022/06/06 00:16:12;;;;;;;19.48;5.93;;;;;;;26.76;47.00;101054.84;5082100;28;20055;-80
2022/06/06 00:18:42;;;;;;;25.40;6.13;;;;;;;26.65;47.27;101040.13;5082167;28;20048;-77
2022/06/06 00:21:11;;;;;;;20.80;6.53;;;;;;;26.76;47.49;101057.56;5082040;28;20294;-80
2022/06/06 00:23:38;;;;;;;16.92;5.68;;;;;;;26.75;47.71;101059.47;5082391;28;20067;-80
2022/06/06 00:26:11;;;;;;;24.38;6.72;;;;;;;25.68;48.06;100898.69;5082124;28;20055;-81
2022/06/06 00:28:42;;;;;;;20.67;6.28;;;;;;;26.62;47.85;101044.13;5082251;28;20219;-80
2022/06/06 00:36:39;;;;;;;19.65;6.93;;;;;;;26.66;48.29;101055.41;5083367;28;20048;-79
2022/06/06 00:39:09;;;;;;;20.67;6.45;;;;;;;26.69;48.91;101060.38;5083447;28;20063;-79
2022/06/06 00:41:47;;;;;;;24.17;6.65;;;;;;;26.55;48.61;101032.50;5081737;28;20635;-80
2022/06/06 00:44:17;;;;;;;24.98;6.90;;;;;;;26.71;48.91;101062.88;5081943;28;20056;-80
2022/06/06 00:46:54;;;;;;;15.15;5.97;;;;;;;26.61;49.61;101063.44;5081834;28;20075;-81
2022/06/06 00:49:26;;;;;;;24.42;7.18;;;;;;;26.38;49.28;101005.06;5081636;28;20048;-79
2022/06/06 00:52:04;;;;;;;22.17;6.63;;;;;;;26.69;49.40;101059.56;5066467;28;20141;-79
2022/06/06 00:54:31;;;;;;;22.98;6.63;;;;;;;26.61;49.30;101053.38;5081557;28;20052;-79
2022/06/06 00:57:06;;;;;;;22.75;7.53;;;;;;;26.57;49.68;101057.63;5081742;28;20117;-79
2022/06/06 00:59:36;;;;;;;21.67;7.00;;;;;;;26.48;49.56;101052.69;5081671;28;20060;-80
2022/06/06 01:02:07;;;;;;;17.25;6.85;;;;;;;26.20;49.97;101024.19;5081127;28;20052;-80
2022/06/06 01:04:34;;;;;;;17.15;6.50;;;;;;;26.42;49.68;101070.78;5081558;28;20054;-80
2022/06/06 01:07:00;;;;;;;14.70;6.30;;;;;;;26.44;49.59;101068.66;5083051;28;20064;-79
2022/06/06 01:09:29;;;;;;;23.50;6.72;;;;;;;24.87;49.59;100830.84;5081229;28;20463;-80
2022/06/06 01:12:02;;;;;;;17.48;6.05;;;;;;;26.29;49.16;101057.34;5081950;28;20549;-80
2022/06/06 01:14:38;;;;;;;17.40;6.70;;;;;;;26.06;49.64;101028.16;5072590;28;20056;-80
2022/06/06 01:17:24;;;;;;;20.40;5.88;;;;;;;26.00;49.09;101013.56;5069386;28;20040;-80
2022/06/06 01:20:31;;;;;;;16.20;6.28;;;;;;;26.14;49.51;101044.16;5068123;28;20415;-80
2022/06/06 01:23:22;;;;;;;19.75;7.10;;;;;;;26.21;49.63;101070.22;5047549;28;20498;-79
2022/06/06 01:26:10;;;;;;;19.83;5.40;;;;;;;25.72;50.23;101006.75;5080930;28;20056;-79
2022/06/06 01:28:43;;;;;;;24.52;6.40;;;;;;;26.19;49.57;101066.91;5080945;28;20061;-80
2022/06/06 01:31:16;;;;;;;17.15;5.88;;;;;;;26.15;49.58;101062.16;5049125;28;20051;-80
2022/06/06 01:33:49;;;;;;;22.60;6.65;;;;;;;26.06;50.07;101071.66;5047831;28;20056;-79
2022/06/06 01:36:16;;;;;;;22.08;6.65;;;;;;;26.08;49.77;101070.38;5047840;28;20076;-81
2022/06/06 01:38:46;;;;;;;21.25;6.68;;;;;;;25.56;49.84;100982.91;5048345;28;20326;-79
2022/06/06 01:41:22;;;;;;;13.55;5.95;;;;;;;25.78;50.02;101030.31;5050081;28;20053;-79
2022/06/06 01:43:57;;;;;;;13.48;6.20;;;;;;;25.75;49.81;101022.63;5048829;28;20115;-80
2022/06/06 01:46:30;;;;;;;14.88;6.00;;;;;;;25.72;50.46;101024.97;5047455;28;20309;-78
2022/06/06 01:48:58;;;;;;;22.42;7.05;;;;;;;25.99;50.03;101066.31;5080319;28;20053;-79
2022/06/06 01:51:28;;;;;;;11.90;5.38;;;;;;;25.05;50.40;100918.81;5047707;28;20055;-78
2022/06/06 01:53:56;;;;;;;13.70;6.13;;;;;;;25.33;50.18;100954.50;5064303;28;20045;-79
2022/06/06 01:56:31;;;;;;;20.88;6.13;;;;;;;25.88;50.09;101048.88;5067423;28;20252;-80
2022/06/06 01:58:59;;;;;;;27.90;6.65;;;;;;;25.30;50.15;100954.13;5068085;28;20053;-80
2022/06/06 02:01:26;;;;;;;21.67;6.97;;;;;;;25.85;50.00;101032.13;5066772;28;20453;-79
2022/06/06 02:03:53;;;;;;;23.67;7.22;;;;;;;25.89;50.54;101057.84;5066775;28;20059;-79
2022/06/06 02:06:20;;;;;;;23.45;6.20;;;;;;;25.91;50.23;101053.84;5066834;28;20052;-81
2022/06/06 02:08:47;;;;;;;27.10;6.88;;;;;;;25.69;49.89;101017.25;5067905;28;20422;-78
2022/06/06 02:11:13;;;;;;;16.38;5.60;;;;;;;25.66;49.85;101023.16;5066674;28;20056;-79
2022/06/06 02:13:40;;;;;;;26.75;6.75;;;;;;;25.51;49.65;100996.31;5066486;28;20390;-80
2022/06/06 02:16:07;;;;;;;21.10;6.45;;;;;;;25.79;49.86;101059.16;5067619;28;20057;-79
2022/06/06 02:18:34;;;;;;;18.95;7.18;;;;;;;25.89;50.01;101049.69;5066520;28;20334;-79
2022/06/06 02:21:04;;;;;;;24.25;6.80;;;;;;;25.49;50.19;100995.75;5066330;28;20041;-79
2022/06/06 02:23:31;;;;;;;18.45;7.75;;;;;;;24.78;50.46;100885.66;5066414;28;20133;-80
2022/06/06 02:25:57;;;;;;;23.65;6.90;;;;;;;25.75;50.49;101043.53;5065526;28;20102;-79
2022/06/06 02:28:25;;;;;;;14.00;6.63;;;;;;;25.70;50.69;101038.78;5067344;28;20067;-80
2022/06/06 02:30:52;;;;;;;16.20;6.03;;;;;;;25.55;50.76;101019.28;5066263;28;20052;-79
2022/06/06 02:33:19;;;;;;;12.55;5.80;;;;;;;25.53;50.37;101013.25;5065873;28;20048;-79
2022/06/06 02:35:46;;;;;;;15.68;5.95;;;;;;;25.69;50.70;101066.19;5066044;28;20056;-80
2022/06/06 02:38:14;;;;;;;13.52;6.38;;;;;;;25.69;50.95;101063.47;5066167;28;20048;-79
2022/06/06 02:40:41;;;;;;;19.58;6.55;;;;;;;25.58;50.83;101063.19;5066315;28;20060;-78
2022/06/06 02:43:07;;;;;;;17.13;6.38;;;;;;;25.35;50.99;101012.16;5065729;28;20143;-79
2022/06/06 02:45:34;;;;;;;24.92;7.18;;;;;;;25.61;51.00;101058.31;5066168;28;20063;-79
2022/06/06 02:48:08;;;;;;;22.50;6.28;;;;;;;25.30;51.27;101022.88;5067098;28;20044;-79
2022/06/06 02:50:35;;;;;;;18.33;6.85;;;;;;;25.62;51.22;101058.09;5066162;28;20063;-79
2022/06/06 02:53:02;;;;;;;16.23;6.38;;;;;;;25.40;51.06;101021.53;5065969;28;20056;-78
2022/06/06 02:55:31;;;;;;;16.80;6.72;;;;;;;25.43;51.22;101046.38;5066197;28;20045;-79
2022/06/06 02:57:59;;;;;;;21.83;6.68;;;;;;;24.66;51.71;100931.69;5066396;28;20131;-79
2022/06/06 03:00:29;;;;;;;13.90;5.75;;;;;;;25.28;51.56;101037.75;5066891;28;20056;-80
2022/06/06 03:02:56;;;;;;;20.05;6.53;;;;;;;25.49;51.31;101066.41;5065479;28;20056;-79
2022/06/06 03:05:38;;;;;;;27.40;7.00;;;;;;;25.43;51.03;101048.25;5065662;28;20123;-80
2022/06/06 03:08:45;;;;;;;18.35;6.18;;;;;;;25.64;50.80;101063.31;5066128;28;20044;-80
2022/06/06 03:11:43;;;;;;;20.08;6.07;;;;;;;25.13;51.22;101000.03;5042540;28;20055;-79
2022/06/06 03:14:31;;;;;;;18.25;6.70;;;;;;;25.45;51.54;101076.06;5065612;28;20098;-80
2022/06/06 03:23:23;;;;;;;15.70;6.82;;;;;;;25.28;52.10;101090.19;5046646;28;20299;-80
2022/06/06 03:26:05;;;;;;;20.13;5.82;;;;;;;25.32;51.77;101101.47;5061854;28;20442;-79
2022/06/06 03:28:44;;;;;;;21.73;6.18;;;;;;;25.29;51.91;101108.19;5078581;28;20040;-79
2022/06/06 03:31:26;;;;;;;33.65;7.43;;;;;;;24.93;52.05;101063.50;5079216;28;20053;-78
2022/06/06 03:34:07;;;;;;;12.95;6.05;;;;;;;25.26;52.14;101114.03;5061883;28;20076;-80
2022/06/06 03:36:41;;;;;;;23.77;6.57;;;;;;;24.88;52.09;101047.03;5078143;28;20470;-79
2022/06/06 03:39:21;;;;;;;19.55;6.75;;;;;;;25.16;52.42;101110.97;5062202;28;20053;-80
2022/06/06 03:42:21;;;;;;;20.45;6.28;;;;;;;25.13;52.80;101111.41;5062233;28;20056;-80
2022/06/06 03:45:01;;;;;;;20.30;6.28;;;;;;;24.50;52.61;101020.75;5078697;28;20410;-80
2022/06/06 03:47:56;;;;;;;17.60;5.57;;;;;;;25.06;52.76;101116.88;5061458;28;20484;-80
2022/06/06 03:50:35;;;;;;;18.67;5.85;;;;;;;25.06;53.06;101121.50;5078463;28;20498;-79
2022/06/06 03:53:12;;;;;;;17.83;5.82;;;;;;;25.11;52.71;101113.50;5088685;28;20045;-79
2022/06/06 03:55:56;;;;;;;21.77;6.55;;;;;;;25.07;52.56;101102.22;5066588;28;20131;-79
2022/06/06 03:58:27;;;;;;;19.10;6.47;;;;;;;24.98;51.94;101075.56;5066724;28;20048;-79
2022/06/06 04:00:57;;;;;;;20.52;6.22;;;;;;;25.18;51.87;101116.22;5066752;28;20048;-80
2022/06/06 04:03:26;;;;;;;20.85;6.10;;;;;;;25.09;51.93;101115.59;5067264;28;20049;-79
2022/06/06 04:05:53;;;;;;;20.45;6.25;;;;;;;25.09;53.11;101131.91;5065664;28;20052;-80
2022/06/06 04:08:20;;;;;;;18.27;6.15;;;;;;;24.79;52.84;101086.34;5065729;28;20047;-79
2022/06/06 04:11:25;;;;;;;27.35;6.22;;;;;;;24.66;52.74;101068.28;5067278;28;20045;-80
2022/06/06 04:14:13;;;;;;;21.45;6.05;;;;;;;25.06;52.88;101132.34;5066839;28;20051;-80
2022/06/06 04:17:08;;;;;;;19.40;7.38;;;;;;;25.00;53.31;101134.06;5065061;28;20459;-81
2022/06/06 04:20:03;;;;;;;15.13;5.90;;;;;;;24.97;53.51;101133.66;5064934;28;20437;-80
2022/06/06 04:22:54;;;;;;;24.88;6.03;;;;;;;24.63;53.51;101078.72;5065106;28;20048;-78
2022/06/06 04:25:33;;;;;;;16.80;6.07;;;;;;;24.91;53.46;101133.50;5064891;28;20478;-78
2022/06/06 04:28:12;;;;;;;14.82;5.43;;;;;;;24.74;53.75;101103.31;5064593;28;20071;-81
2022/06/06 04:31:00;;;;;;;16.25;5.50;;;;;;;24.66;53.36;101083.72;5064990;28;20138;-80
2022/06/06 04:33:40;;;;;;;19.50;5.90;;;;;;;24.40;53.71;101036.66;5064594;28;20418;-80
2022/06/06 04:36:17;;;;;;;23.27;6.73;;;;;;;24.87;53.81;101124.09;5064982;28;20233;-80
2022/06/06 04:38:59;;;;;;;22.75;7.53;;;;;;;24.94;53.99;101129.50;5064552;28;20105;-80
2022/06/06 04:41:38;;;;;;;24.05;7.20;;;;;;;24.95;54.21;101129.28;5065026;28;20060;-79
2022/06/06 04:44:17;;;;;;;24.23;6.30;;;;;;;24.97;53.40;101117.38;5064399;28;20036;-80
2022/06/06 04:46:44;;;;;;;18.73;6.80;;;;;;;25.07;53.29;101140.25;5066051;28;20052;-80
2022/06/06 04:49:12;;;;;;;14.55;6.68;;;;;;;24.86;53.14;101091.75;5065824;28;20048;-80
2022/06/06 04:51:41;;;;;;;17.10;6.35;;;;;;;25.11;53.22;101125.19;5068280;28;20106;-80
2022/06/06 04:54:13;;;;;;;24.20;6.45;;;;;;;24.79;53.88;101083.66;5069596;28;20079;-79
2022/06/06 04:56:40;;;;;;;;;;;;;;;25.15;54.19;101136.47;5068960;28;20387;-79
2022/06/06 04:59:11;;;;;;;21.23;6.93;;;;;;;25.01;53.88;101108.56;5068033;28;20113;-79
2022/06/06 05:01:39;;;;;;;22.30;6.80;;;;;;;24.91;53.94;101091.94;5067666;28;20169;-79
2022/06/06 05:04:06;;;;;;;15.77;7.18;;;;;;;25.18;53.76;101130.63;5067846;28;20044;-80
2022/06/06 05:07:09;;;;;;;20.58;6.78;;;;;;;25.27;54.03;101133.88;5069341;28;20102;-78
2022/06/06 05:09:48;;;;;;;19.50;6.47;;;;;;;25.29;53.80;101138.06;5068255;28;20044;-80
2022/06/06 05:12:40;;;;;;;25.48;5.65;;;;;;;25.31;53.66;101138.66;5069572;28;20060;-80
2022/06/06 05:15:15;;;;;;;;;;;;;;;25.34;53.85;101135.53;5068600;28;20049;-78
2022/06/06 05:17:45;;;;;;;18.45;6.07;;;;;;;25.02;53.89;101071.38;5068024;28;19921;-79
2022/06/06 05:20:34;;;;;;;19.92;5.97;;;;;;;25.35;52.76;101126.31;5067593;28;20049;-79
2022/06/06 05:23:21;;;;;;;19.33;6.35;;;;;;;25.51;52.22;101137.66;5048709;28;20102;-80
2022/06/06 05:26:26;;;;;;;18.10;5.45;;;;;;;25.55;51.74;101136.16;5048893;28;20107;-79
2022/06/06 05:29:06;;;;;;;21.55;6.45;;;;;;;25.52;52.93;101126.56;5080731;28;20053;-80
2022/06/06 05:32:03;;;;;;;14.15;5.40;;;;;;;25.65;52.12;101136.50;5081204;28;20592;-81
2022/06/06 05:34:39;;;;;;;12.95;4.85;;;;;;;25.67;49.63;101139.81;5080905;28;20079;-77
2022/06/06 05:37:31;;;;;;;15.13;4.43;;;;;;;25.71;49.05;101145.66;5047844;28;20110;-80
2022/06/06 05:40:00;;;;;;;10.02;3.80;;;;;;;25.68;49.45;101127.91;5047700;28;20479;-80
2022/06/06 05:42:45;;;;;;;15.40;4.70;;;;;;;25.82;49.73;101141.38;5082112;28;20357;-80
2022/06/06 05:45:54;;;;;;;22.38;5.38;;;;;;;25.80;48.53;101145.16;5050192;28;20486;-78
2022/06/06 05:48:35;;;;;;;11.40;4.55;;;;;;;25.92;47.81;101144.41;5081871;28;20104;-80
2022/06/06 05:51:25;;;;;;;15.32;4.88;;;;;;;25.94;47.65;101155.91;5055465;28;20464;-79
2022/06/06 05:54:20;;;;;;;16.10;4.80;;;;;;;25.20;47.00;101025.28;5063331;28;20045;-78
2022/06/06 05:57:00;;;;;;;14.60;4.22;;;;;;;25.67;47.71;101085.44;5038272;28;20045;-79
2022/06/06 05:59:36;;;;;;;8.85;3.38;;;;;;;26.12;47.79;101139.63;5067528;28;20052;-80
2022/06/06 06:02:23;;;;;;;8.95;4.60;;;;;;;26.19;47.71;101150.41;5066633;28;20044;-78
2022/06/06 06:04:56;;;;;;;7.88;3.97;;;;;;;26.20;47.64;101150.19;5067349;28;20059;-81
2022/06/06 06:07:52;;;;;;;10.50;4.30;;;;;;;26.27;46.65;101117.47;5067048;28;20493;-79
2022/06/06 06:10:50;;;;;;;15.77;4.45;;;;;;;25.97;47.42;101073.84;5067054;28;20048;-81
2022/06/06 06:13:55;;;;;;;12.50;5.20;;;;;;;26.48;46.76;101146.06;5066976;28;20045;-80
2022/06/06 06:16:25;;;;;;;10.20;4.18;;;;;;;25.90;46.92;101052.19;5068543;28;20050;-80
2022/06/06 06:19:09;;;;;;;13.43;4.50;;;;;;;26.44;46.34;101139.44;5066643;28;20084;-80
2022/06/06 06:21:59;;;;;;;14.20;5.55;;;;;;;26.38;46.54;101126.75;5065331;28;20052;-79
2022/06/06 06:24:31;;;;;;;14.23;4.30;;;;;;;26.10;46.86;101079.16;5065409;28;20153;-80
2022/06/06 06:27:01;;;;;;;9.57;4.43;;;;;;;26.42;47.02;101117.06;5067478;28;20456;-82
2022/06/06 06:29:28;;;;;;;15.05;5.03;;;;;;;26.70;46.46;101146.47;5067961;28;20056;-80
2022/06/06 06:32:15;;;;;;;21.52;5.50;;;;;;;26.92;46.88;101160.41;5067084;28;20056;-81
2022/06/06 06:35:01;;;;;;;17.23;4.90;;;;;;;26.87;47.05;101138.50;5067607;28;20048;-81
2022/06/06 06:37:36;;;;;;;8.55;4.70;;;;;;;26.97;46.14;101166.00;5067701;28;20185;-79
2022/06/06 06:40:06;;;;;;;9.13;5.15;;;;;;;26.80;46.60;101133.13;5066473;28;20048;-79
2022/06/06 06:43:05;;;;;;;11.82;4.53;;;;;;;26.99;45.83;101163.88;5067579;28;20049;-80
2022/06/06 06:45:37;;;;;;;20.63;5.18;;;;;;;27.13;45.20;101169.13;5065579;28;20484;-80
2022/06/06 06:48:32;;;;;;;15.93;4.82;;;;;;;27.01;45.57;101156.28;5065689;28;20430;-80
2022/06/06 06:51:22;;;;;;;11.10;4.65;;;;;;;26.89;45.62;101141.78;5066118;28;20048;-80
2022/06/06 06:54:15;;;;;;;17.50;5.07;;;;;;;27.12;45.34;101178.38;5066101;28;20052;-80
2022/06/06 06:57:03;;;;;;;15.55;4.95;;;;;;;27.18;45.45;101188.31;5065745;28;20044;-80
2022/06/06 07:00:08;;;;;;;10.65;4.70;;;;;;;27.25;46.75;101191.81;5065865;28;20110;-79
2022/06/06 07:09:10;;;;;;;18.13;5.20;;;;;;;27.06;46.14;101164.63;5066685;28;20372;-81
2022/06/06 07:11:49;;;;;;;13.30;5.22;;;;;;;27.32;46.47;101189.81;5065288;28;20045;-79
2022/06/06 07:14:37;;;;;;;12.13;4.97;;;;;;;27.31;46.32;101181.84;5065665;28;20049;-79
2022/06/06 07:17:05;;;;;;;12.13;4.53;;;;;;;27.40;46.28;101192.19;5065528;28;20048;-79
2022/06/06 07:19:39;;;;;;;14.32;5.20;;;;;;;27.14;46.88;101151.69;5065389;28;20079;-79
2022/06/06 07:22:06;;;;;;;17.13;5.32;;;;;;;27.40;46.71;101180.47;5065411;28;20464;-80
2022/06/06 07:24:33;;;;;;;15.60;5.50;;;;;;;27.34;46.30;101162.34;5066547;28;20052;-78
2022/06/06 07:27:01;;;;;;;27.77;5.72;;;;;;;27.55;46.56;101186.31;5065608;28;20052;-78
2022/06/06 07:29:28;;;;;;;16.83;4.43;;;;;;;27.64;47.10;101187.59;5065135;28;20080;-80
2022/06/06 07:32:19;;;;;;;8.00;4.40;;;;;;;27.56;46.64;101147.06;5065413;28;20425;-79
2022/06/06 07:35:06;;;;;;;;;;;;;;;27.80;46.64;101198.91;5065461;28;20052;-81
2022/06/06 07:37:55;;;;;;;9.25;4.60;;;;;;;27.46;46.40;101147.66;5065185;28;19974;-80
2022/06/06 07:40:37;;;;;;;15.20;5.82;;;;;;;27.88;46.29;101204.84;5065201;28;20051;-81
2022/06/06 07:43:53;;;;;;;18.08;4.72;;;;;;;27.83;46.06;101212.09;5066007;28;20048;-81
2022/06/06 07:46:32;;;;;;;17.25;5.00;;;;;;;27.86;46.43;101206.97;5057227;28;20325;-81
2022/06/06 07:49:05;;;;;;;23.42;5.43;;;;;;;27.98;47.07;101209.72;5065201;28;20072;-81
2022/06/06 07:51:53;;;;;;;13.52;5.38;;;;;;;28.02;47.21;101212.81;5066192;28;20469;-81
2022/06/06 07:54:58;;;;;;;19.42;6.03;;;;;;;27.95;46.92;101193.81;5046224;28;20061;-80
2022/06/06 07:57:25;;;;;;;10.82;5.15;;;;;;;28.07;47.04;101207.47;5046059;28;20457;-80
2022/06/06 08:00:05;;;;;;;15.27;5.85;;;;;;;28.14;46.76;101213.63;5077959;28;20246;-80
2022/06/06 08:02:56;;;;;;;17.40;5.95;;;;;;;27.71;46.93;101154.78;5046444;28;20048;-81
2022/06/06 08:05:51;;;;;;;18.17;6.25;;;;;;;28.23;46.42;101193.09;5056392;28;20060;-80
2022/06/06 08:08:30;;;;;;;18.63;6.03;;;;;;;28.27;46.64;101212.53;5078329;28;20045;-80
2022/06/06 08:11:19;;;;;;;27.33;7.57;;;;;;;28.29;48.35;101205.78;5046100;28;20072;-79
2022/06/06 08:13:52;;;;;;;16.08;6.53;;;;;;;28.27;48.20;101199.72;5044707;28;20045;-80
2022/06/06 08:16:39;;;;;;;17.88;6.80;;;;;;;28.24;48.53;101213.03;5078004;28;20307;-79
2022/06/06 08:19:18;;;;;;;16.30;7.15;;;;;;;28.21;48.46;101203.44;5044673;28;20518;-80
2022/06/06 08:21:47;;;;;;;20.67;6.93;;;;;;;28.15;49.00;101204.38;5057309;28;20059;-80
2022/06/06 08:24:34;;;;;;;15.05;6.95;;;;;;;28.18;48.65;101197.59;5065973;28;20555;-81
2022/06/06 08:27:18;;;;;;;23.02;6.82;;;;;;;28.16;48.77;101175.16;5068882;28;20048;-81
2022/06/06 08:29:46;;;;;;;21.60;7.10;;;;;;;28.40;49.39;101214.19;5069941;28;20051;-81
2022/06/06 08:32:13;;;;;;;14.93;6.55;;;;;;;28.29;49.00;101200.31;5069151;28;20514;-80
2022/06/06 08:34:41;;;;;;;15.52;7.60;;;;;;;28.42;49.18;101217.50;5068949;28;20525;-80
2022/06/06 08:37:24;;;;;;;19.95;6.90;;;;;;;28.51;49.47;101219.66;5072229;28;20048;-81
2022/06/06 08:39:57;;;;;;;17.65;7.35;;;;;;;28.72;49.31;101215.44;5070532;28;20636;-80
2022/06/06 08:42:46;;;;;;;20.25;7.90;;;;;;;28.85;49.75;101213.50;5069983;28;20063;-80
2022/06/06 08:45:15;;;;;;;19.60;7.93;;;;;;;28.86;49.75;101215.16;5069359;28;20156;-79
2022/06/06 08:47:55;;;;;;;27.55;8.43;;;;;;;28.80;49.37;101211.50;5068542;28;20071;-80
2022/06/06 08:50:45;;;;;;;16.63;7.30;;;;;;;28.52;49.03;101152.19;5068963;28;20318;-79
2022/06/06 08:53:49;;;;;;;14.65;7.15;;;;;;;28.98;49.53;101213.19;5067880;28;20536;-79
2022/06/06 08:56:54;;;;;;;26.35;8.23;;;;;;;28.97;48.56;101211.56;5068772;28;20056;-82
2022/06/06 08:59:51;;;;;;;28.70;7.93;;;;;;;29.04;48.61;101212.25;5069828;28;20561;-82
2022/06/06 09:02:32;;;;;;;21.08;7.35;;;;;;;28.97;49.33;101209.66;5071363;28;20056;-82
2022/06/06 09:05:20;;;;;;;20.98;7.93;;;;;;;29.01;49.36;101211.88;5071095;28;20055;-79
2022/06/06 09:08:08;;;;;;;21.52;8.05;;;;;;;29.07;49.38;101216.41;5068617;28;20055;-82
2022/06/06 09:10:36;;;;;;;23.85;7.93;;;;;;;28.28;48.64;101073.09;5068387;28;20110;-82
2022/06/06 09:13:11;;;;;;;21.30;7.20;;;;;;;29.22;48.93;101207.66;5068244;28;20053;-81
2022/06/06 09:15:50;;;;;;;18.25;7.70;;;;;;;29.32;48.31;101197.75;5068258;28;20059;-83
2022/06/06 09:18:26;;;;;;;18.40;7.70;;;;;;;29.41;47.93;101195.41;5068198;28;20048;-81
2022/06/06 09:21:05;;;;;;;21.90;7.70;;;;;;;29.53;48.28;101198.91;5068051;28;20478;-82
2022/06/06 09:23:44;;;;;;;19.73;8.18;;;;;;;28.84;48.07;101097.09;5068520;28;20214;-81
2022/06/06 09:26:29;;;;;;;21.95;7.13;;;;;;;29.44;47.77;101192.19;5069227;28;20053;-81
2022/06/06 09:29:48;;;;;;;19.20;7.88;;;;;;;28.82;47.65;101083.69;5068083;28;20048;-81
2022/06/06 09:32:42;;;;;;;20.60;7.78;;;;;;;29.50;47.36;101196.69;5042987;28;20453;-83
2022/06/06 09:35:19;;;;;;;26.25;8.57;;;;;;;29.54;47.08;101186.91;5067342;28;20106;-83
2022/06/06 09:38:15;;;;;;;18.52;7.70;;;;;;;29.61;47.20;101200.41;5067714;28;20048;-82
2022/06/06 09:41:14;;;;;;;25.25;8.43;;;;;;;29.79;47.26;101197.44;5067444;28;20074;-82
2022/06/06 09:43:53;;;;;;;16.50;7.10;;;;;;;29.89;46.85;101206.91;4997383;28;20049;-83
2022/06/06 09:46:48;;;;;;;19.23;7.15;;;;;;;29.99;46.49;101198.81;5067953;28;20045;-82
2022/06/06 09:49:41;;;;;;;22.13;8.05;;;;;;;29.92;46.58;101201.72;5068454;28;20053;-81
2022/06/06 09:52:46;;;;;;;27.67;7.70;;;;;;;29.96;47.14;101202.91;5066825;28;20218;-82
2022/06/06 09:59:03;;;;;;;16.90;7.72;;;;;;;30.41;45.88;101199.16;5068326;28;20040;-82
2022/06/06 10:01:33;;;;;;;29.67;8.00;;;;;;;30.41;45.45;101193.66;5067115;28;20052;-83
2022/06/06 10:04:21;;;;;;;22.60;7.30;;;;;;;30.43;45.13;101186.03;5063605;28;20544;-81
2022/06/06 10:07:09;;;;;;;16.27;7.00;;;;;;;30.50;44.91;101185.03;5065858;28;20049;-81
2022/06/06 10:10:19;;;;;;;17.00;7.15;;;;;;;30.67;45.06;101180.28;5066711;28;20049;-83
2022/06/06 10:13:17;;;;;;;21.70;7.55;;;;;;;30.77;44.47;101174.91;5066941;28;20063;-83
2022/06/06 10:15:48;;;;;;;21.52;7.18;;;;;;;30.94;43.95;101174.03;5066911;28;20376;-83
2022/06/06 10:18:52;;;;;;;21.02;7.18;;;;;;;31.16;43.54;101179.44;5066542;28;20533;-83
2022/06/06 10:21:41;;;;;;;14.00;6.82;;;;;;;31.33;42.73;101187.56;5066668;28;20060;-83
2022/06/06 10:24:20;;;;;;;24.17;7.75;;;;;;;31.14;42.78;101135.00;5066840;28;20360;-82
2022/06/06 10:26:54;;;;;;;15.90;6.75;;;;;;;31.38;42.86;101182.09;5066530;28;20256;-82
2022/06/06 10:32:42;;;;;;;17.75;6.68;;;;;;;31.47;43.08;101169.59;5067681;28;20044;-82
2022/06/06 10:35:18;;;;;;;20.00;6.70;;;;;;;31.72;43.26;101158.78;5067935;28;20052;-81
2022/06/06 10:38:22;;;;;;;16.55;6.53;;;;;;;31.88;40.96;101161.66;5066438;28;20048;-83
2022/06/06 10:41:08;;;;;;;15.93;6.20;;;;;;;32.10;41.22;101154.09;5066249;28;20052;-81
2022/06/06 10:43:45;;;;;;;15.38;6.90;;;;;;;32.17;40.48;101131.09;5066194;28;20068;-81
2022/06/06 10:46:16;;;;;;;22.73;7.68;;;;;;;32.48;40.75;101142.97;5065229;28;20349;-81
2022/06/06 10:48:51;;;;;;;14.82;6.32;;;;;;;32.72;39.53;101135.09;5067212;28;20052;-81
2022/06/06 10:51:55;;;;;;;17.67;7.43;;;;;;;32.77;39.69;101129.66;5066331;28;20482;-82
2022/06/06 10:54:41;;;;;;;16.10;6.43;;;;;;;32.83;39.60;101131.28;5046108;28;20069;-83
2022/06/06 10:57:39;;;;;;;15.20;6.45;;;;;;;32.35;39.34;101068.22;5046233;28;20048;-81
2022/06/06 11:00:34;;;;;;;18.35;6.45;;;;;;;32.93;38.76;101123.03;5056805;28;20044;-83
2022/06/06 11:03:10;;;;;;;19.45;7.15;;;;;;;33.16;38.58;101116.22;5045661;28;20434;-82
2022/06/06 11:05:55;;;;;;;13.88;5.95;;;;;;;33.31;38.04;101115.38;5046970;28;20052;-83
2022/06/06 11:08:55;;;;;;;22.50;6.70;;;;;;;33.14;38.52;101114.84;5079371;28;20057;-82
2022/06/06 11:12:22;;;;;;;13.05;6.32;;;;;;;33.52;37.83;101123.59;5039877;28;20120;-82
2022/06/06 11:14:51;;;;;;;21.35;6.18;;;;;;;33.27;36.84;101064.75;5035350;28;20044;-82
2022/06/06 11:18:09;;;;;;;11.45;5.57;;;;;;;33.47;37.58;101121.69;5085685;28;20059;-80
2022/06/06 11:20:45;;;;;;;19.83;6.55;;;;;;;33.67;36.83;101120.03;5066992;28;20261;-82
2022/06/06 11:23:56;;;;;;;15.25;6.20;;;;;;;32.86;36.54;100968.53;5069356;28;20055;-82
2022/06/06 11:26:35;;;;;;;20.58;6.35;;;;;;;34.04;36.56;101108.63;5066766;28;20365;-84
2022/06/06 11:29:31;;;;;;;15.85;5.60;;;;;;;33.90;36.27;101108.41;5065833;28;20045;-82
2022/06/06 11:32:10;;;;;;;17.10;6.38;;;;;;;34.06;36.02;101106.44;5064401;28;20481;-82
2022/06/06 11:35:19;;;;;;;14.85;5.95;;;;;;;33.73;35.61;101042.66;5065953;28;20050;-82
2022/06/06 11:38:07;;;;;;;12.70;5.40;;;;;;;34.00;36.04;101064.28;5016438;28;20063;-83
2022/06/06 11:40:55;;;;;;;15.18;5.65;;;;;;;34.26;35.77;101055.94;5066664;28;20429;-83
2022/06/06 11:43:32;;;;;;;17.00;5.85;;;;;;;34.69;35.93;101092.09;5066117;28;20052;-82
2022/06/06 11:46:13;;;;;;;13.43;5.75;;;;;;;34.70;35.10;101090.16;5065111;28;20055;-83
2022/06/06 11:49:14;;;;;;;11.07;5.60;;;;;;;34.96;34.76;101096.28;5067601;28;20044;-83
2022/06/06 11:52:07;;;;;;;11.80;6.00;;;;;;;34.85;34.77;101074.28;5069053;28;20052;-84
2022/06/06 11:55:13;;;;;;;16.80;5.45;;;;;;;35.12;34.63;101069.41;5046614;28;20045;-84
2022/06/06 11:58:11;;;;;;;9.02;5.70;;;;;;;35.36;34.38;101106.16;5040419;28;20045;-84
2022/06/06 12:00:38;;;;;;;20.13;6.63;;;;;;;35.69;33.96;101098.13;5078496;28;20710;-83
2022/06/06 12:03:41;;;;;;;16.58;6.40;;;;;;;35.31;34.45;101070.31;5046021;28;20129;-82
2022/06/06 12:07:12;;;;;;;13.48;5.30;;;;;;;35.46;33.76;101078.44;5044622;28;20045;-82
2022/06/06 12:09:44;;;;;;;13.50;5.57;;;;;;;35.86;33.81;101104.00;5022944;28;20057;-83
2022/06/06 12:12:31;;;;;;;13.35;5.45;;;;;;;36.06;34.04;101096.56;5006528;28;20499;-82
2022/06/06 12:15:41;;;;;;;15.82;6.43;;;;;;;36.34;32.62;101095.66;5030373;28;20263;-83
2022/06/06 12:18:35;;;;;;;21.83;6.97;;;;;;;36.53;32.84;101067.19;5046207;28;20376;-83
2022/06/06 12:21:10;;;;;;;16.63;5.88;;;;;;;36.77;32.12;101095.59;5082970;28;20094;-82
2022/06/06 12:23:37;;;;;;;15.63;7.13;;;;;;;36.76;32.50;101088.41;5066253;28;20445;-82
2022/06/06 12:26:31;;;;;;;16.02;6.43;;;;;;;36.01;32.29;100964.03;5065707;28;20055;-83
2022/06/06 12:29:18;;;;;;;13.57;6.25;;;;;;;36.80;32.77;101055.47;5064960;28;20044;-84
2022/06/06 12:32:07;;;;;;;20.98;6.28;;;;;;;37.05;32.23;101081.03;5065573;28;20422;-83
2022/06/06 12:34:52;;;;;;;15.35;5.82;;;;;;;37.13;31.29;101078.41;5064710;28;20220;-83
2022/06/06 12:37:45;;;;;;;9.77;5.93;;;;;;;37.09;31.39;101058.03;5065879;28;20049;-83
2022/06/06 12:40:21;;;;;;;17.85;6.53;;;;;;;35.93;31.58;100874.38;5064631;28;20098;-83
2022/06/06 12:42:48;;;;;;;12.93;5.65;;;;;;;37.26;31.73;101062.13;5064746;28;20057;-83
2022/06/06 12:45:27;;;;;;;16.25;5.97;;;;;;;37.43;31.70;101051.28;5065729;28;20044;-84
2022/06/06 12:48:24;;;;;;;20.65;6.55;;;;;;;37.56;31.15;101050.50;5064371;28;20068;-83
2022/06/06 12:51:08;;;;;;;18.35;5.78;;;;;;;37.43;30.96;101040.22;5065852;28;20067;-82